sensor_id;sensor_type;location;lat;lon;timestamp;pressure;altitude;pressure_sealevel;temperature;humidity
59971;BME280;45825;45.434;9.116;2023-02-05T00:02:07;101632.66;;;9.41;57.92
59971;BME280;45825;45.434;9.116;2023-02-05T00:04:33;101643.03;;;9.45;57.01
59971;BME280;45825;45.434;9.116;2023-02-05T00:06:59;101639.59;;;9.43;57.45
59971;BME280;45825;45.434;9.116;2023-02-05T00:09:24;101634.72;;;9.31;57.72
59971;BME280;45825;45.434;9.116;2023-02-05T00:11:50;101642.72;;;9.26;57.63
59971;BME280;45825;45.434;9.116;2023-02-05T00:14:15;101642.88;;;9.20;57.27
59971;BME280;45825;45.434;9.116;2023-02-05T00:16:40;101648.53;;;9.06;57.62
59971;BME280;45825;45.434;9.116;2023-02-05T00:19:06;101646.84;;;9.03;57.72
59971;BME280;45825;45.434;9.116;2023-02-05T00:21:31;101654.59;;;9.08;57.16
59971;BME280;45825;45.434;9.116;2023-02-05T00:23:56;101650.41;;;9.01;57.49
59971;BME280;45825;45.434;9.116;2023-02-05T00:26:22;101647.69;;;9.04;57.19
59971;BME280;45825;45.434;9.116;2023-02-05T00:28:47;101653.94;;;9.00;56.63
59971;BME280;45825;45.434;9.116;2023-02-05T00:31:15;101671.50;;;8.98;56.25
59971;BME280;45825;45.434;9.116;2023-02-05T00:33:42;101678.38;;;9.02;56.04
59971;BME280;45825;45.434;9.116;2023-02-05T00:36:09;101700.97;;;9.07;55.81
59971;BME280;45825;45.434;9.116;2023-02-05T00:38:35;101704.00;;;8.92;55.46
59971;BME280;45825;45.434;9.116;2023-02-05T00:41:00;101700.03;;;8.75;56.11
59971;BME280;45825;45.434;9.116;2023-02-05T00:43:26;101712.13;;;8.83;55.67
59971;BME280;45825;45.434;9.116;2023-02-05T00:45:51;101719.69;;;8.95;55.30
59971;BME280;45825;45.434;9.116;2023-02-05T00:48:16;101718.94;;;8.90;55.52
59971;BME280;45825;45.434;9.116;2023-02-05T00:50:42;101725.84;;;8.94;55.14
59971;BME280;45825;45.434;9.116;2023-02-05T00:53:07;101730.28;;;8.92;54.97
59971;BME280;45825;45.434;9.116;2023-02-05T00:55:32;101732.66;;;9.01;54.77
59971;BME280;45825;45.434;9.116;2023-02-05T00:57:58;101739.94;;;8.90;54.44
59971;BME280;45825;45.434;9.116;2023-02-05T01:00:25;101742.47;;;8.94;54.61
59971;BME280;45825;45.434;9.116;2023-02-05T01:02:52;101734.69;;;8.90;54.29
59971;BME280;45825;45.434;9.116;2023-02-05T01:05:18;101747.09;;;8.83;54.19
59971;BME280;45825;45.434;9.116;2023-02-05T01:07:43;101747.84;;;8.90;54.44
59971;BME280;45825;45.434;9.116;2023-02-05T01:10:08;101750.72;;;8.77;54.76
59971;BME280;45825;45.434;9.116;2023-02-05T01:12:34;101754.13;;;8.83;54.46
59971;BME280;45825;45.434;9.116;2023-02-05T01:15:00;101764.69;;;8.79;54.65
59971;BME280;45825;45.434;9.116;2023-02-05T01:17:26;101762.81;;;8.85;54.25
59971;BME280;45825;45.434;9.116;2023-02-05T01:19:51;101768.22;;;8.78;54.78
59971;BME280;45825;45.434;9.116;2023-02-05T01:22:16;101767.44;;;8.75;54.31
59971;BME280;45825;45.434;9.116;2023-02-05T01:24:42;101776.97;;;8.77;54.03
59971;BME280;45825;45.434;9.116;2023-02-05T01:27:07;101777.72;;;8.84;54.09
59971;BME280;45825;45.434;9.116;2023-02-05T01:29:32;101784.59;;;8.88;53.74
59971;BME280;45825;45.434;9.116;2023-02-05T01:31:58;101778.31;;;8.96;53.58
59971;BME280;45825;45.434;9.116;2023-02-05T01:34:23;101785.63;;;8.83;53.63
59971;BME280;45825;45.434;9.116;2023-02-05T01:36:48;101787.22;;;8.88;53.92
59971;BME280;45825;45.434;9.116;2023-02-05T01:39:14;101785.63;;;8.83;53.71
59971;BME280;45825;45.434;9.116;2023-02-05T01:41:41;101783.91;;;8.82;53.36
59971;BME280;45825;45.434;9.116;2023-02-05T01:46:39;101790.25;;;8.71;53.84
59971;BME280;45825;45.434;9.116;2023-02-05T01:49:07;101791.84;;;8.78;53.16
59971;BME280;45825;45.434;9.116;2023-02-05T01:51:36;101788.25;;;8.81;53.12
59971;BME280;45825;45.434;9.116;2023-02-05T01:54:02;101783.84;;;8.83;53.44
59971;BME280;45825;45.434;9.116;2023-02-05T01:56:35;101777.88;;;8.76;53.02
59971;BME280;45825;45.434;9.116;2023-02-05T01:59:15;101774.81;;;8.59;53.52
59971;BME280;45825;45.434;9.116;2023-02-05T02:01:43;101774.81;;;8.59;53.65
59971;BME280;45825;45.434;9.116;2023-02-05T02:04:10;101774.84;;;8.56;53.53
59971;BME280;45825;45.434;9.116;2023-02-05T02:06:39;101783.59;;;8.56;53.38
59971;BME280;45825;45.434;9.116;2023-02-05T02:09:05;101780.25;;;8.48;53.73
59971;BME280;45825;45.434;9.116;2023-02-05T02:11:35;101782.84;;;8.49;53.42
59971;BME280;45825;45.434;9.116;2023-02-05T02:14:03;101775.91;;;8.47;53.59
59971;BME280;45825;45.434;9.116;2023-02-05T02:16:32;101788.28;;;8.42;53.55
59971;BME280;45825;45.434;9.116;2023-02-05T02:18:58;101789.19;;;8.39;54.09
59971;BME280;45825;45.434;9.116;2023-02-05T02:21:34;101783.84;;;8.44;53.83
59971;BME280;45825;45.434;9.116;2023-02-05T02:24:14;101779.59;;;8.38;53.80
59971;BME280;45825;45.434;9.116;2023-02-05T02:29:38;101784.97;;;8.32;53.94
59971;BME280;45825;45.434;9.116;2023-02-05T02:32:20;101791.09;;;8.32;53.62
59971;BME280;45825;45.434;9.116;2023-02-05T02:34:51;101789.41;;;8.28;53.95
59971;BME280;45825;45.434;9.116;2023-02-05T02:37:24;101795.50;;;8.30;53.71
59971;BME280;45825;45.434;9.116;2023-02-05T02:40:04;101788.47;;;8.32;53.47
59971;BME280;45825;45.434;9.116;2023-02-05T02:42:39;101786.75;;;8.31;53.60
59971;BME280;45825;45.434;9.116;2023-02-05T02:45:07;101792.63;;;8.41;53.28
59971;BME280;45825;45.434;9.116;2023-02-05T02:47:37;101787.47;;;8.38;53.09
59971;BME280;45825;45.434;9.116;2023-02-05T02:50:20;101778.91;;;8.28;53.17
59971;BME280;45825;45.434;9.116;2023-02-05T02:52:49;101792.88;;;8.30;53.14
59971;BME280;45825;45.434;9.116;2023-02-05T02:55:16;101792.09;;;8.25;53.05
59971;BME280;45825;45.434;9.116;2023-02-05T02:57:46;101793.94;;;8.21;53.15
59971;BME280;45825;45.434;9.116;2023-02-05T03:00:17;101801.00;;;8.18;53.26
59971;BME280;45825;45.434;9.116;2023-02-05T03:02:44;101799.91;;;8.28;52.86
59971;BME280;45825;45.434;9.116;2023-02-05T03:05:14;101792.09;;;8.27;52.82
59971;BME280;45825;45.434;9.116;2023-02-05T03:07:48;101787.59;;;8.32;52.86
59971;BME280;45825;45.434;9.116;2023-02-05T03:10:38;101786.75;;;8.30;52.43
59971;BME280;45825;45.434;9.116;2023-02-05T03:13:09;101800.91;;;8.22;52.97
59971;BME280;45825;45.434;9.116;2023-02-05T03:15:36;101785.31;;;8.16;52.99
59971;BME280;45825;45.434;9.116;2023-02-05T03:18:02;101789.66;;;8.17;52.59
59971;BME280;45825;45.434;9.116;2023-02-05T03:20:32;101791.47;;;8.14;53.13
59971;BME280;45825;45.434;9.116;2023-02-05T03:23:00;101792.34;;;8.14;52.64
59971;BME280;45825;45.434;9.116;2023-02-05T03:25:27;101795.69;;;8.21;52.55
59971;BME280;45825;45.434;9.116;2023-02-05T03:27:53;101800.25;;;8.11;52.75
59971;BME280;45825;45.434;9.116;2023-02-05T03:30:20;101797.44;;;8.20;52.00
59971;BME280;45825;45.434;9.116;2023-02-05T03:38:27;101805.25;;;8.23;52.31
59971;BME280;45825;45.434;9.116;2023-02-05T03:41:04;101793.00;;;8.24;52.35
59971;BME280;45825;45.434;9.116;2023-02-05T03:43:56;101802.22;;;8.01;52.58
59971;BME280;45825;45.434;9.116;2023-02-05T03:46:30;101787.25;;;8.06;52.34
59971;BME280;45825;45.434;9.116;2023-02-05T03:54:17;101798.88;;;7.94;52.61
59971;BME280;45825;45.434;9.116;2023-02-05T03:57:06;101803.88;;;8.05;52.94
59971;BME280;45825;45.434;9.116;2023-02-05T03:59:34;101796.06;;;8.04;52.62
59971;BME280;45825;45.434;9.116;2023-02-05T04:02:01;101796.16;;;7.97;52.98
59971;BME280;45825;45.434;9.116;2023-02-05T04:04:29;101805.81;;;7.95;52.54
59971;BME280;45825;45.434;9.116;2023-02-05T04:06:54;101804.75;;;8.06;52.66
59971;BME280;45825;45.434;9.116;2023-02-05T04:09:19;101810.19;;;7.96;52.81
59971;BME280;45825;45.434;9.116;2023-02-05T04:11:45;101801.47;;;7.94;52.67
59971;BME280;45825;45.434;9.116;2023-02-05T04:14:10;101812.13;;;7.85;52.86
59971;BME280;45825;45.434;9.116;2023-02-05T04:16:35;101813.66;;;7.97;52.38
59971;BME280;45825;45.434;9.116;2023-02-05T04:19:01;101816.25;;;7.99;52.51
59971;BME280;45825;45.434;9.116;2023-02-05T04:21:26;101811.97;;;7.93;52.66
59971;BME280;45825;45.434;9.116;2023-02-05T04:23:51;101813.13;;;7.79;53.38
59971;BME280;45825;45.434;9.116;2023-02-05T04:26:17;101806.91;;;7.83;52.91
59971;BME280;45825;45.434;9.116;2023-02-05T04:28:42;101806.84;;;7.88;52.83
59971;BME280;45825;45.434;9.116;2023-02-05T04:31:08;101805.13;;;7.86;52.58
59971;BME280;45825;45.434;9.116;2023-02-05T04:33:33;101812.06;;;7.88;52.91
59971;BME280;45825;45.434;9.116;2023-02-05T04:35:59;101808.69;;;7.83;53.29
59971;BME280;45825;45.434;9.116;2023-02-05T04:38:26;101812.13;;;7.87;52.96
59971;BME280;45825;45.434;9.116;2023-02-05T04:40:51;101810.53;;;7.78;53.13
59971;BME280;45825;45.434;9.116;2023-02-05T04:43:17;101802.66;;;7.79;53.13
59971;BME280;45825;45.434;9.116;2023-02-05T04:45:42;101804.38;;;7.80;53.03
59971;BME280;45825;45.434;9.116;2023-02-05T04:48:07;101807.88;;;7.81;53.31
59971;BME280;45825;45.434;9.116;2023-02-05T04:50:33;101805.34;;;7.76;53.48
59971;BME280;45825;45.434;9.116;2023-02-05T04:52:58;101805.25;;;7.81;53.29
59971;BME280;45825;45.434;9.116;2023-02-05T04:55:26;101807.97;;;7.75;53.33
59971;BME280;45825;45.434;9.116;2023-02-05T04:57:51;101807.06;;;7.76;53.47
59971;BME280;45825;45.434;9.116;2023-02-05T05:00:17;101806.91;;;7.83;53.22
59971;BME280;45825;45.434;9.116;2023-02-05T05:02:42;101809.91;;;7.65;53.78
59971;BME280;45825;45.434;9.116;2023-02-05T05:05:08;101810.81;;;7.62;53.95
59971;BME280;45825;45.434;9.116;2023-02-05T05:07:33;101815.91;;;7.70;53.68
59971;BME280;45825;45.434;9.116;2023-02-05T05:09:58;101808.03;;;7.72;53.59
59971;BME280;45825;45.434;9.116;2023-02-05T05:12:23;101808.88;;;7.72;53.86
59971;BME280;45825;45.434;9.116;2023-02-05T05:14:49;101812.47;;;7.66;54.00
59971;BME280;45825;45.434;9.116;2023-02-05T05:17:14;101815.31;;;7.55;54.01
59971;BME280;45825;45.434;9.116;2023-02-05T05:19:39;101811.72;;;7.60;54.30
59971;BME280;45825;45.434;9.116;2023-02-05T05:22:05;101817.94;;;7.55;54.37
59971;BME280;45825;45.434;9.116;2023-02-05T05:24:30;101814.41;;;7.57;54.23
59971;BME280;45825;45.434;9.116;2023-02-05T05:26:56;101813.38;;;7.65;54.09
59971;BME280;45825;45.434;9.116;2023-02-05T05:29:21;101811.00;;;7.51;54.25
59971;BME280;45825;45.434;9.116;2023-02-05T05:31:46;101808.44;;;7.48;54.31
59971;BME280;45825;45.434;9.116;2023-02-05T05:34:12;101807.56;;;7.49;54.42
59971;BME280;45825;45.434;9.116;2023-02-05T05:36:37;101805.81;;;7.50;54.28
59971;BME280;45825;45.434;9.116;2023-02-05T05:39:07;101807.47;;;7.54;54.67
59971;BME280;45825;45.434;9.116;2023-02-05T05:41:51;101798.66;;;7.58;54.27
59971;BME280;45825;45.434;9.116;2023-02-05T05:44:35;101795.28;;;7.51;54.60
59971;BME280;45825;45.434;9.116;2023-02-05T05:47:00;101792.00;;;7.40;54.79
59971;BME280;45825;45.434;9.116;2023-02-05T05:49:25;101796.38;;;7.39;54.84
59971;BME280;45825;45.434;9.116;2023-02-05T05:51:51;101795.44;;;7.44;54.76
59971;BME280;45825;45.434;9.116;2023-02-05T05:54:16;101805.06;;;7.41;54.91
59971;BME280;45825;45.434;9.116;2023-02-05T05:56:41;101799.03;;;7.38;54.56
59971;BME280;45825;45.434;9.116;2023-02-05T05:59:07;101792.94;;;7.37;55.00
59971;BME280;45825;45.434;9.116;2023-02-05T06:01:32;101799.91;;;7.37;54.54
59971;BME280;45825;45.434;9.116;2023-02-05T06:03:57;101798.28;;;7.31;55.02
59971;BME280;45825;45.434;9.116;2023-02-05T06:06:23;101800.06;;;7.27;55.29
59971;BME280;45825;45.434;9.116;2023-02-05T06:08:48;101804.41;;;7.30;55.13
59971;BME280;45825;45.434;9.116;2023-02-05T06:11:13;101794.91;;;7.23;55.39
59971;BME280;45825;45.434;9.116;2023-02-05T06:13:39;101806.19;;;7.26;55.47
59971;BME280;45825;45.434;9.116;2023-02-05T06:16:06;101800.16;;;7.23;55.45
59971;BME280;45825;45.434;9.116;2023-02-05T06:18:31;101810.75;;;7.17;55.50
59971;BME280;45825;45.434;9.116;2023-02-05T06:20:56;101806.22;;;7.25;55.49
59971;BME280;45825;45.434;9.116;2023-02-05T06:23:22;101811.50;;;7.23;55.31
59971;BME280;45825;45.434;9.116;2023-02-05T06:25:47;101816.69;;;7.26;55.53
59971;BME280;45825;45.434;9.116;2023-02-05T06:28:12;101814.19;;;7.19;55.45
59971;BME280;45825;45.434;9.116;2023-02-05T06:30:38;101825.44;;;7.24;55.60
59971;BME280;45825;45.434;9.116;2023-02-05T06:33:03;101827.22;;;7.22;55.40
59971;BME280;45825;45.434;9.116;2023-02-05T06:35:30;101823.06;;;7.10;55.99
59971;BME280;45825;45.434;9.116;2023-02-05T06:37:55;101824.75;;;7.12;55.55
59971;BME280;45825;45.434;9.116;2023-02-05T06:40:21;101836.81;;;7.23;55.62
59971;BME280;45825;45.434;9.116;2023-02-05T06:42:51;101828.94;;;7.23;55.34
59971;BME280;45825;45.434;9.116;2023-02-05T06:45:16;101832.47;;;7.22;55.52
59971;BME280;45825;45.434;9.116;2023-02-05T06:47:41;101828.81;;;7.31;55.21
59971;BME280;45825;45.434;9.116;2023-02-05T06:50:07;101828.94;;;7.23;55.16
59971;BME280;45825;45.434;9.116;2023-02-05T06:52:32;101816.81;;;7.19;55.81
59971;BME280;45825;45.434;9.116;2023-02-05T06:54:58;101813.25;;;7.23;55.30
59971;BME280;45825;45.434;9.116;2023-02-05T06:57:23;101811.44;;;7.25;55.64
59971;BME280;45825;45.434;9.116;2023-02-05T06:59:49;101815.13;;;7.15;55.83
59971;BME280;45825;45.434;9.116;2023-02-05T07:02:15;101815.91;;;7.20;55.64
59971;BME280;45825;45.434;9.116;2023-02-05T07:04:40;101813.22;;;7.24;55.83
59971;BME280;45825;45.434;9.116;2023-02-05T07:07:05;101824.59;;;7.23;55.39
59971;BME280;45825;45.434;9.116;2023-02-05T07:09:31;101819.38;;;7.22;55.68
59971;BME280;45825;45.434;9.116;2023-02-05T07:11:56;101828.06;;;7.24;55.41
59971;BME280;45825;45.434;9.116;2023-02-05T07:14:21;101834.06;;;7.31;55.25
59971;BME280;45825;45.434;9.116;2023-02-05T07:16:47;101836.66;;;7.32;55.32
59971;BME280;45825;45.434;9.116;2023-02-05T07:19:12;101831.63;;;7.21;55.31
59971;BME280;45825;45.434;9.116;2023-02-05T07:21:37;101820.41;;;7.11;55.68
59971;BME280;45825;45.434;9.116;2023-02-05T07:24:03;101836.81;;;7.23;55.59
59971;BME280;45825;45.434;9.116;2023-02-05T07:26:28;101843.75;;;7.27;55.46
59971;BME280;45825;45.434;9.116;2023-02-05T07:28:54;101844.78;;;7.15;56.10
59971;BME280;45825;45.434;9.116;2023-02-05T07:31:19;101855.13;;;7.24;55.24
59971;BME280;45825;45.434;9.116;2023-02-05T07:33:45;101858.59;;;7.25;55.49
59971;BME280;45825;45.434;9.116;2023-02-05T07:36:15;101864.81;;;7.18;55.94
59971;BME280;45825;45.434;9.116;2023-02-05T07:38:41;101868.09;;;7.32;55.32
59971;BME280;45825;45.434;9.116;2023-02-05T07:41:09;101872.44;;;7.33;55.21
59971;BME280;45825;45.434;9.116;2023-02-05T07:43:36;101880.28;;;7.33;55.58
59971;BME280;45825;45.434;9.116;2023-02-05T07:46:05;101888.28;;;7.25;55.71
59971;BME280;45825;45.434;9.116;2023-02-05T07:48:31;101890.88;;;7.25;55.73
59971;BME280;45825;45.434;9.116;2023-02-05T07:50:56;101871.50;;;7.37;55.21
59971;BME280;45825;45.434;9.116;2023-02-05T07:53:21;101879.38;;;7.37;55.11
59971;BME280;45825;45.434;9.116;2023-02-05T07:55:47;101878.31;;;7.48;55.03
59971;BME280;45825;45.434;9.116;2023-02-05T07:58:13;101873.84;;;7.53;55.15
59971;BME280;45825;45.434;9.116;2023-02-05T08:00:39;101877.44;;;7.49;55.31
59971;BME280;45825;45.434;9.116;2023-02-05T08:03:04;101884.94;;;7.67;54.82
59971;BME280;45825;45.434;9.116;2023-02-05T08:05:30;101885.00;;;7.66;54.52
59971;BME280;45825;45.434;9.116;2023-02-05T08:07:55;101884.19;;;7.61;54.75
59971;BME280;45825;45.434;9.116;2023-02-05T08:10:20;101882.53;;;7.55;54.97
59971;BME280;45825;45.434;9.116;2023-02-05T08:12:46;101886.19;;;7.46;55.21
59971;BME280;45825;45.434;9.116;2023-02-05T08:15:11;101897.50;;;7.50;55.27
59971;BME280;45825;45.434;9.116;2023-02-05T08:17:37;101900.72;;;7.66;54.91
59971;BME280;45825;45.434;9.116;2023-02-05T08:20:04;101909.19;;;7.80;54.66
59971;BME280;45825;45.434;9.116;2023-02-05T08:22:33;101904.91;;;7.76;54.83
59971;BME280;45825;45.434;9.116;2023-02-05T08:24:59;101903.94;;;7.80;54.91
59971;BME280;45825;45.434;9.116;2023-02-05T08:27:24;101906.63;;;7.77;54.63
59971;BME280;45825;45.434;9.116;2023-02-05T08:29:49;101917.72;;;7.92;54.28
59971;BME280;45825;45.434;9.116;2023-02-05T08:32:15;101913.53;;;7.81;54.79
59971;BME280;45825;45.434;9.116;2023-02-05T08:34:40;101920.72;;;7.72;55.16
59971;BME280;45825;45.434;9.116;2023-02-05T08:37:05;101909.41;;;7.68;54.82
59971;BME280;45825;45.434;9.116;2023-02-05T08:39:30;101908.31;;;7.81;54.86
59971;BME280;45825;45.434;9.116;2023-02-05T08:41:56;101912.78;;;7.76;55.05
59971;BME280;45825;45.434;9.116;2023-02-05T08:44:21;101912.34;;;8.00;54.43
59971;BME280;45825;45.434;9.116;2023-02-05T08:46:46;101900.94;;;8.04;54.61
59971;BME280;45825;45.434;9.116;2023-02-05T08:49:12;101893.00;;;8.07;54.42
59971;BME280;45825;45.434;9.116;2023-02-05T08:51:37;101889.31;;;8.16;54.38
59971;BME280;45825;45.434;9.116;2023-02-05T08:54:02;101891.34;;;8.03;54.89
59971;BME280;45825;45.434;9.116;2023-02-05T08:56:30;101895.94;;;7.90;54.02
59971;BME280;45825;45.434;9.116;2023-02-05T08:58:55;101902.91;;;7.91;53.96
59971;BME280;45825;45.434;9.116;2023-02-05T09:01:21;101899.38;;;7.93;53.89
59971;BME280;45825;45.434;9.116;2023-02-05T09:03:46;101893.19;;;7.96;53.57
59971;BME280;45825;45.434;9.116;2023-02-05T09:06:14;101887.09;;;7.94;53.75
59971;BME280;45825;45.434;9.116;2023-02-05T09:08:40;101893.38;;;7.87;53.37
59971;BME280;45825;45.434;9.116;2023-02-05T09:11:06;101906.66;;;7.76;52.82
59971;BME280;45825;45.434;9.116;2023-02-05T09:13:32;101908.22;;;7.88;52.88
59971;BME280;45825;45.434;9.116;2023-02-05T09:15:58;101899.31;;;7.95;53.25
59971;BME280;45825;45.434;9.116;2023-02-05T09:18:23;101902.53;;;7.62;53.26
59971;BME280;45825;45.434;9.116;2023-02-05T09:20:49;101906.84;;;7.65;53.43
59971;BME280;45825;45.434;9.116;2023-02-05T09:23:16;101914.50;;;7.77;53.15
59971;BME280;45825;45.434;9.116;2023-02-05T09:25:42;101904.47;;;7.51;53.68
59971;BME280;45825;45.434;9.116;2023-02-05T09:28:09;101905.09;;;7.64;53.67
59971;BME280;45825;45.434;9.116;2023-02-05T09:30:36;101913.75;;;7.71;53.03
59971;BME280;45825;45.434;9.116;2023-02-05T09:33:01;101917.38;;;7.62;53.36
59971;BME280;45825;45.434;9.116;2023-02-05T09:35:30;101910.25;;;7.70;53.26
59971;BME280;45825;45.434;9.116;2023-02-05T09:37:56;101913.56;;;7.80;53.17
59971;BME280;45825;45.434;9.116;2023-02-05T09:40:23;101908.31;;;7.81;53.66
59971;BME280;45825;45.434;9.116;2023-02-05T09:43:14;101898.50;;;7.93;52.77
59971;BME280;45825;45.434;9.116;2023-02-05T09:45:51;101905.44;;;7.95;52.88
59971;BME280;45825;45.434;9.116;2023-02-05T09:51:02;101917.88;;;7.82;52.79
59971;BME280;45825;45.434;9.116;2023-02-05T09:53:35;101911.50;;;7.99;53.62
59971;BME280;45825;45.434;9.116;2023-02-05T09:56:03;101913.00;;;8.11;52.04
59971;BME280;45825;45.434;9.116;2023-02-05T09:58:32;101898.16;;;8.11;51.78
59971;BME280;45825;45.434;9.116;2023-02-05T10:01:05;101911.00;;;8.25;51.44
59971;BME280;45825;45.434;9.116;2023-02-05T10:04:00;101924.97;;;8.26;50.93
59971;BME280;45825;45.434;9.116;2023-02-05T10:09:34;101921.28;;;8.36;50.66
59971;BME280;45825;45.434;9.116;2023-02-05T10:33:57;101900.53;;;9.09;49.62
59971;BME280;45825;45.434;9.116;2023-02-05T10:36:26;101900.75;;;9.36;48.80
59971;BME280;45825;45.434;9.116;2023-02-05T10:38:55;101898.91;;;9.76;48.38
59971;BME280;45825;45.434;9.116;2023-02-05T10:41:27;101896.00;;;10.18;48.01
59971;BME280;45825;45.434;9.116;2023-02-05T10:46:39;101893.59;;;10.11;46.41
59971;BME280;45825;45.434;9.116;2023-02-05T10:49:14;101883.06;;;10.74;45.40
59971;BME280;45825;45.434;9.116;2023-02-05T10:51:43;101891.09;;;11.53;43.67
59971;BME280;45825;45.434;9.116;2023-02-05T10:54:30;101884.09;;;12.05;42.43
59971;BME280;45825;45.434;9.116;2023-02-05T10:57:00;101871.34;;;13.53;40.02
59971;BME280;45825;45.434;9.116;2023-02-05T10:59:28;101871.22;;;15.83;36.38
59971;BME280;45825;45.434;9.116;2023-02-05T11:01:56;101865.56;;;16.07;34.67
59971;BME280;45825;45.434;9.116;2023-02-05T11:07:12;101856.78;;;19.21;30.55
59971;BME280;45825;45.434;9.116;2023-02-05T11:09:38;101843.41;;;19.48;28.76
59971;BME280;45825;45.434;9.116;2023-02-05T11:12:13;101822.59;;;20.67;26.95
59971;BME280;45825;45.434;9.116;2023-02-05T11:14:43;101816.75;;;20.62;26.65
59971;BME280;45825;45.434;9.116;2023-02-05T11:19:49;101816.97;;;21.55;25.88
59971;BME280;45825;45.434;9.116;2023-02-05T11:22:27;101815.38;;;21.05;26.48
59971;BME280;45825;45.434;9.116;2023-02-05T11:25:24;101809.59;;;21.81;25.19
59971;BME280;45825;45.434;9.116;2023-02-05T11:30:38;101800.97;;;17.34;29.88
59971;BME280;45825;45.434;9.116;2023-02-05T11:36:01;101801.63;;;14.90;33.87
59971;BME280;45825;45.434;9.116;2023-02-05T11:41:01;101808.84;;;14.30;34.89
59971;BME280;45825;45.434;9.116;2023-02-05T11:43:33;101806.28;;;14.48;34.62
59971;BME280;45825;45.434;9.116;2023-02-05T11:46:03;101795.59;;;14.30;34.13
59971;BME280;45825;45.434;9.116;2023-02-05T11:48:31;101789.22;;;13.77;34.78
59971;BME280;45825;45.434;9.116;2023-02-05T11:51:01;101786.88;;;14.47;33.84
59971;BME280;45825;45.434;9.116;2023-02-05T11:53:27;101784.25;;;14.47;34.28
59971;BME280;45825;45.434;9.116;2023-02-05T11:55:56;101794.97;;;14.44;35.03
59971;BME280;45825;45.434;9.116;2023-02-05T11:58:25;101796.75;;;14.05;35.59
59971;BME280;45825;45.434;9.116;2023-02-05T12:01:04;101793.31;;;14.03;35.38
59971;BME280;45825;45.434;9.116;2023-02-05T12:03:33;101788.72;;;15.70;33.13
59971;BME280;45825;45.434;9.116;2023-02-05T12:06:10;101769.56;;;16.31;31.54
59971;BME280;45825;45.434;9.116;2023-02-05T12:08:44;101780.03;;;16.02;31.55
59971;BME280;45825;45.434;9.116;2023-02-05T12:19:49;101763.38;;;17.54;29.68
59971;BME280;45825;45.434;9.116;2023-02-05T12:22:33;101757.13;;;19.22;27.92
59971;BME280;45825;45.434;9.116;2023-02-05T12:25:24;101745.22;;;20.28;26.50
59971;BME280;45825;45.434;9.116;2023-02-05T12:33:19;101724.31;;;25.75;20.48
59971;BME280;45825;45.434;9.116;2023-02-05T12:39:17;101720.81;;;25.17;20.74
59971;BME280;45825;45.434;9.116;2023-02-05T12:45:07;101723.31;;;24.41;20.43
59971;BME280;45825;45.434;9.116;2023-02-05T12:59:22;101682.44;;;26.53;18.66
59971;BME280;45825;45.434;9.116;2023-02-05T13:01:56;101681.25;;;25.27;19.39
59971;BME280;45825;45.434;9.116;2023-02-05T13:04:47;101685.06;;;24.08;20.26
59971;BME280;45825;45.434;9.116;2023-02-05T13:10:05;101666.00;;;27.17;18.33
59971;BME280;45825;45.434;9.116;2023-02-05T13:12:36;101676.22;;;26.53;18.80
59971;BME280;45825;45.434;9.116;2023-02-05T13:17:37;101678.22;;;23.74;19.99
59971;BME280;45825;45.434;9.116;2023-02-05T13:20:14;101673.00;;;23.92;20.53
59971;BME280;45825;45.434;9.116;2023-02-05T13:22:55;101676.28;;;25.32;18.71
59971;BME280;45825;45.434;9.116;2023-02-05T13:25:43;101677.41;;;25.67;17.91
59971;BME280;45825;45.434;9.116;2023-02-05T13:28:51;101671.47;;;25.26;18.56
59971;BME280;45825;45.434;9.116;2023-02-05T13:31:41;101674.88;;;25.84;18.04
59971;BME280;45825;45.434;9.116;2023-02-05T13:34:11;101662.00;;;24.54;19.16
59971;BME280;45825;45.434;9.116;2023-02-05T13:50:51;101659.09;;;22.20;20.73
59971;BME280;45825;45.434;9.116;2023-02-05T13:56:19;101669.72;;;23.07;20.30
59971;BME280;45825;45.434;9.116;2023-02-05T13:58:53;101670.22;;;24.43;19.00
59971;BME280;45825;45.434;9.116;2023-02-05T14:01:25;101672.69;;;25.70;18.36
59971;BME280;45825;45.434;9.116;2023-02-05T14:04:05;101668.25;;;22.93;19.87
59971;BME280;45825;45.434;9.116;2023-02-05T14:06:35;101665.91;;;23.09;19.92
59971;BME280;45825;45.434;9.116;2023-02-05T14:09:09;101660.41;;;22.80;20.41
59971;BME280;45825;45.434;9.116;2023-02-05T14:11:48;101664.72;;;23.54;19.65
59971;BME280;45825;45.434;9.116;2023-02-05T14:16:45;101672.97;;;21.58;20.98
59971;BME280;45825;45.434;9.116;2023-02-05T14:19:16;101676.69;;;22.01;20.61
59971;BME280;45825;45.434;9.116;2023-02-05T14:24:44;101653.78;;;23.97;19.53
59971;BME280;45825;45.434;9.116;2023-02-05T14:29:51;101654.38;;;23.19;20.43
59971;BME280;45825;45.434;9.116;2023-02-05T14:37:36;101665.09;;;16.16;28.07
59971;BME280;45825;45.434;9.116;2023-02-05T14:40:25;101665.22;;;14.07;31.86
59971;BME280;45825;45.434;9.116;2023-02-05T14:42:54;101662.00;;;14.01;31.36
59971;BME280;45825;45.434;9.116;2023-02-05T14:45:20;101658.84;;;13.35;32.34
59971;BME280;45825;45.434;9.116;2023-02-05T14:47:47;101668.56;;;12.72;34.26
59971;BME280;45825;45.434;9.116;2023-02-05T14:50:19;101662.34;;;12.73;34.35
59971;BME280;45825;45.434;9.116;2023-02-05T14:52:49;101663.00;;;12.57;35.19
59971;BME280;45825;45.434;9.116;2023-02-05T14:57:53;101663.94;;;12.34;35.83
59971;BME280;45825;45.434;9.116;2023-02-05T15:08:16;101655.97;;;11.90;36.93
59971;BME280;45825;45.434;9.116;2023-02-05T15:13:40;101664.91;;;10.88;38.84
59971;BME280;45825;45.434;9.116;2023-02-05T15:18:47;101665.59;;;10.95;39.82
59971;BME280;45825;45.434;9.116;2023-02-05T15:21:19;101661.16;;;11.21;39.68
59971;BME280;45825;45.434;9.116;2023-02-05T15:23:51;101669.53;;;11.07;39.83
59971;BME280;45825;45.434;9.116;2023-02-05T15:26:30;101661.13;;;10.97;39.92
59971;BME280;45825;45.434;9.116;2023-02-05T15:29:04;101656.75;;;10.71;40.81
59971;BME280;45825;45.434;9.116;2023-02-05T15:31:36;101657.56;;;10.73;40.38